Flight Track Log - Related Links

Times and Time Zones

All times are in EDT time to prevent confusion due to time zone crossing. See the SKW5631 flight status page for this flight to view local times or setup timezone preferences in your user account.

Time Position Orientation Groundspeed Altitude Reporting Facility
EDT Latitude Longitude Course Direction KTS MPH feet Rate Location/Type
Fri 10:06:00 PM 37.3398 -122.0273 135° Southeast  Level Estimated
Fri 10:07:00 PM 37.2464 -121.9119 135° Southeast  Level Estimated
Fri 10:08:00 PM 37.1530 -121.7968 136° Southeast  Level Estimated
Fri 10:09:00 PM 37.0594 -121.6819 136° Southeast  Level Estimated
Fri 10:10:00 PM 36.9658 -121.5674 136° Southeast  Level Estimated
Fri 10:11:00 PM 36.8720 -121.4531 136° Southeast  Level Estimated
Fri 10:12:00 PM 36.7781 -121.3391 136° Southeast  Level Estimated
Fri 10:13:00 PM 36.6841 -121.2254 136° Southeast  Level Estimated
Fri 10:14:00 PM 36.5900 -121.1120 136° Southeast  Level Estimated
Fri 10:15:00 PM 36.4958 -120.9988 136° Southeast  Level Estimated
Fri 10:16:00 PM 36.4015 -120.8859 136° Southeast  Level Estimated
Fri 10:17:00 PM 36.3071 -120.7733 136° Southeast  Level Estimated
Fri 10:18:00 PM 36.2125 -120.6610 136° Southeast  Level Estimated
Fri 10:19:00 PM 36.1179 -120.5489 136° Southeast  Level Estimated
Fri 10:20:00 PM 36.0232 -120.4371 136° Southeast  Level Estimated
Fri 10:21:00 PM 35.9283 -120.3256 136° Southeast  Level Estimated
Fri 10:22:00 PM 35.8334 -120.2143 136° Southeast  Level Estimated
Fri 10:23:00 PM 35.7383 -120.1033 137° Southeast  Level Estimated
Fri 10:24:00 PM 35.6432 -119.9926 137° Southeast  Level Estimated
Fri 10:25:00 PM 35.5479 -119.8821 137° Southeast  Level Estimated
Fri 10:26:00 PM 35.4526 -119.7719 137° Southeast  Level Estimated
Fri 10:27:00 PM 35.3571 -119.6620 137° Southeast  Level Estimated
Fri 10:28:00 PM 35.2616 -119.5523 137° Southeast  Level Estimated
Fri 10:29:00 PM 35.1659 -119.4429 137° Southeast  Level Estimated
Fri 10:30:00 PM 35.0702 -119.3337 137° Southeast  Level Estimated
Fri 10:31:00 PM 34.9744 -119.2248 137° Southeast  Level Estimated
Fri 10:32:00 PM 34.8784 -119.1161 137° Southeast  Level Estimated
Fri 10:33:00 PM 34.7824 -119.0077 137° Southeast  Level Estimated
Fri 10:34:00 PM 34.6863 -118.8996 137° Southeast  Level Estimated
Fri 10:35:00 PM 34.5900 -118.7917 137° Southeast  Level Estimated
Fri 10:36:00 PM 34.4937 -118.6840 137° Southeast  Level Estimated
Fri 10:37:00 PM 34.3973 -118.5766 137° Southeast  Level Estimated
Fri 10:38:00 PM 34.3008 -118.4695 137° Southeast  Level Estimated
Fri 10:39:00 PM 34.2042 -118.3626 138° Southeast  Level Estimated
Fri 10:40:00 PM 34.2007 -118.3587 138° Southeast  Level Estimated
Fri 10:41:00 PM 34.2007 -118.3587 140° Southeast  Level Estimated
Fri 10:42:00 PM 34.2007 -118.3587 140° Southeast  Level Estimated
Fri 10:43:00 PM 34.2007 -118.3587 140° Southeast  Level Estimated
Fri 10:44:00 PM 34.2007 -118.3587 140° Southeast  Level Estimated
Fri 10:45:00 PM 34.2007 -118.3587 140° Southeast  Level Estimated
Fri 10:46:00 PM 34.2007 -118.3587 140° Southeast  Level Estimated
Fri 10:47:00 PM 34.2007 -118.3587 140° Southeast  Level Estimated
Fri 10:48:00 PM 34.2007 -118.3587 140° Southeast  Level Estimated
Fri 10:49:00 PM 34.2007 -118.3587 140° Southeast  Level Estimated
Fri 10:50:00 PM 34.2007 -118.3587 140° Southeast  Level Estimated
Fri 10:51:00 PM 34.2007 -118.3587 140° Southeast  Level Estimated
Fri 10:52:00 PM 34.2007 -118.3587 140° Southeast  Level Estimated
Fri 10:53:00 PM 34.2007 -118.3587 140° Southeast  Level Estimated
Fri 10:54:00 PM 34.2007 -118.3587 140° Southeast  Level Estimated
Fri 10:55:00 PM 34.2007 -118.3587 140° Southeast  Level Estimated

Login

Don't have an account? Register now (free) for customized features, flight alerts, and more!